Observation data for Dimmitt on 12/10/2018      Previous  Date       Current Mesonet Observations  Soil Data  Daily Summary Page  Observations in Plain Language
KDMS 100600Z 29010KT M05/M06 A3037 RMK A01 T10451062  RH  088%=      5-min Rain = 0
KDMS 100605Z 29009KT M05/M06 A3036 RMK A01 T10451063  RH  088%=      5-min Rain = 0
KDMS 100610Z 29010KT M05/M06 A3036 RMK A01 T10451063  RH  087%=      5-min Rain = 0
KDMS 100615Z 30009KT M04/M06 A3036 RMK A01 T10421061  RH  087%=      5-min Rain = 0
KDMS 100620Z 30009KT M04/M06 A3036 RMK A01 T10421062  RH  086%=      5-min Rain = 0
KDMS 100625Z 28007KT M04/M06 A3036 RMK A01 T10421064  RH  085%=      5-min Rain = 0
KDMS 100630Z 26002KT M05/M07 A3036 RMK A01 T10461067  RH  085%=      5-min Rain = 0
KDMS 100635Z 29004KT M05/M07 A3036 RMK A01 T10481068  RH  086%=      5-min Rain = 0
KDMS 100640Z 29007KT M05/M07 A3036 RMK A01 T10471069  RH  085%=      5-min Rain = 0
KDMS 100645Z 29008KT M05/M07 A3036 RMK A01 T10471070  RH  084%=      5-min Rain = 0
KDMS 100650Z 29006KT M05/M07 A3036 RMK A01 T10451072  RH  082%=      5-min Rain = 0
KDMS 100655Z 28007KT M05/M07 A3035 RMK A01 T10471074  RH  082%=      5-min Rain = 0
KDMS 100700Z 27004KT M05/M08 A3035 RMK A01 T10501076  RH  082%=      5-min Rain = 0
KDMS 100705Z 28006KT M05/M08 A3035 RMK A01 T10511077  RH  082%=      5-min Rain = 0
KDMS 100710Z 28005KT M05/M08 A3035 RMK A01 T10541079  RH  082%=      5-min Rain = 0
KDMS 100715Z 27004KT M05/M08 A3034 RMK A01 T10531078  RH  082%=      5-min Rain = 0
KDMS 100720Z 28005KT M05/M08 A3034 RMK A01 T10481077  RH  080%=      5-min Rain = 0
KDMS 100725Z 29007KT M05/M08 A3034 RMK A01 T10481079  RH  079%=      5-min Rain = 0
KDMS 100730Z 29004KT M05/M08 A3034 RMK A01 T10511079  RH  080%=      5-min Rain = 0
KDMS 100735Z 29007KT M05/M08 A3034 RMK A01 T10501079  RH  080%=      5-min Rain = 0
KDMS 100740Z 29008KT M05/M08 A3034 RMK A01 T10531080  RH  081%=      5-min Rain = 0
KDMS 100745Z 29009KT M05/M08 A3033 RMK A01 T10521079  RH  081%=      5-min Rain = 0
KDMS 100750Z 29009KT M05/M08 A3033 RMK A01 T10511079  RH  081%=      5-min Rain = 0
KDMS 100755Z 29009KT M05/M08 A3033 RMK A01 T10511079  RH  080%=      5-min Rain = 0
KDMS 100800Z 28007KT M05/M08 A3033 RMK A01 T10521080  RH  081%=      5-min Rain = 0
KDMS 100805Z 28004KT M05/M08 A3033 RMK A01 T10521078  RH  082%=      5-min Rain = 0
KDMS 100810Z 28004KT M05/M08 A3033 RMK A01 T10481077  RH  081%=      5-min Rain = 0
KDMS 100815Z 28004KT M05/M08 A3033 RMK A01 T10481077  RH  080%=      5-min Rain = 0
KDMS 100820Z 28003KT M05/M08 A3033 RMK A01 T10491078  RH  080%=      5-min Rain = 0
KDMS 100825Z 28004KT M05/M08 A3033 RMK A01 T10471078  RH  079%=      5-min Rain = 0
KDMS 100830Z 27003KT M05/M08 A3033 RMK A01 T10471078  RH  078%=      5-min Rain = 0
KDMS 100835Z 29003KT M05/M08 A3033 RMK A01 T10481079  RH  079%=      5-min Rain = 0
KDMS 100840Z 28002KT M05/M08 A3033 RMK A01 T10501080  RH  080%=      5-min Rain = 0
KDMS 100845Z 27003KT M05/M08 A3033 RMK A01 T10501079  RH  080%=      5-min Rain = 0
KDMS 100850Z 28002KT M05/M08 A3032 RMK A01 T10491078  RH  080%=      5-min Rain = 0
KDMS 100855Z 29002KT M05/M08 A3032 RMK A01 T10511079  RH  081%=      5-min Rain = 0
KDMS 100900Z 28003KT M05/M08 A3032 RMK A01 T10501076  RH  082%=      5-min Rain = 0
KDMS 100905Z 27003KT M05/M08 A3032 RMK A01 T10481075  RH  081%=      5-min Rain = 0
KDMS 100910Z 29003KT M05/M08 A3032 RMK A01 T10481076  RH  081%=      5-min Rain = 0
KDMS 100915Z 28003KT M05/M08 A3032 RMK A01 T10501077  RH  082%=      5-min Rain = 0
KDMS 100920Z 28004KT M05/M08 A3032 RMK A01 T10541077  RH  084%=      5-min Rain = 0
KDMS 100925Z 27003KT M06/M08 A3032 RMK A01 T10561076  RH  086%=      5-min Rain = 0
KDMS 100930Z 28006KT M06/M07 A3032 RMK A01 T10561073  RH  087%=      5-min Rain = 0
KDMS 100935Z 28007KT M05/M07 A3032 RMK A01 T10511068  RH  089%=      5-min Rain = 0
KDMS 100940Z 28008KT M05/M07 A3032 RMK A01 T10501067  RH  088%=      5-min Rain = 0
KDMS 100945Z 28009KT M05/M07 A3032 RMK A01 T10501067  RH  088%=      5-min Rain = 0
KDMS 100950Z 28008KT M05/M06 A3032 RMK A01 T10491064  RH  089%=      5-min Rain = 0
KDMS 100955Z 28007KT M05/M06 A3032 RMK A01 T10481062  RH  090%=      5-min Rain = 0
KDMS 101000Z 28006KT M05/M06 A3032 RMK A01 T10461060  RH  090%=      5-min Rain = 0
KDMS 101005Z 28006KT M05/M06 A3032 RMK A01 T10451059  RH  090%=      5-min Rain = 0
KDMS 101010Z 28007KT M04/M06 A3032 RMK A01 T10441058  RH  090%=      5-min Rain = 0
KDMS 101015Z 28009KT M04/M05 A3032 RMK A01 T10381051  RH  091%=      5-min Rain = 0
KDMS 101020Z 28010KT M03/M05 A3032 RMK A01 T10341050  RH  090%=      5-min Rain = 0
KDMS 101025Z 28011KT M03/M05 A3032 RMK A01 T10331048  RH  090%=      5-min Rain = 0
KDMS 101030Z 28011KT M03/M05 A3032 RMK A01 T10321047  RH  089%=      5-min Rain = 0
KDMS 101035Z 28010KT M03/M05 A3031 RMK A01 T10311047  RH  089%=      5-min Rain = 0
KDMS 101040Z 28010KT M03/M05 A3031 RMK A01 T10311047  RH  089%=      5-min Rain = 0
KDMS 101045Z 28010KT M03/M05 A3031 RMK A01 T10321048  RH  089%=      5-min Rain = 0
KDMS 101050Z 28010KT M03/M05 A3031 RMK A01 T10331048  RH  090%=      5-min Rain = 0
KDMS 101055Z 28010KT M03/M05 A3031 RMK A01 T10331048  RH  090%=      5-min Rain = 0
KDMS 101100Z 28008KT M03/M05 A3031 RMK A01 T10341049  RH  090%=      5-min Rain = 0
KDMS 101105Z 28008KT M04/M05 A3031 RMK A01 T10351050  RH  090%=      5-min Rain = 0
KDMS 101110Z 27007KT M04/M05 A3031 RMK A01 T10361051  RH  090%=      5-min Rain = 0
KDMS 101115Z 27006KT M04/M05 A3031 RMK A01 T10371051  RH  091%=      5-min Rain = 0
KDMS 101120Z 27007KT M04/M05 A3031 RMK A01 T10371050  RH  091%=      5-min Rain = 0
KDMS 101125Z 27007KT M04/M05 A3031 RMK A01 T10391052  RH  091%=      5-min Rain = 0
KDMS 101130Z 27008KT M04/M05 A3031 RMK A01 T10361049  RH  092%=      5-min Rain = 0
KDMS 101135Z 27009KT M03/M05 A3031 RMK A01 T10331047  RH  091%=      5-min Rain = 0
KDMS 101140Z 27010KT M03/M04 A3031 RMK A01 T10311044  RH  091%=      5-min Rain = 0
KDMS 101145Z 28010KT M03/M04 A3031 RMK A01 T10291044  RH  090%=      5-min Rain = 0
KDMS 101150Z 28010KT M03/M04 A3031 RMK A01 T10281042  RH  090%=      5-min Rain = 0
KDMS 101155Z 28010KT M03/M04 A3031 RMK A01 T10271042  RH  090%=      5-min Rain = 0
KDMS 101200Z 27010KT M03/M04 A3031 RMK A01 T10261041  RH  090%=      5-min Rain = 0
KDMS 101205Z 27009KT M03/M04 A3031 RMK A01 T10261041  RH  090%=      5-min Rain = 0
KDMS 101210Z 27009KT M03/M04 A3031 RMK A01 T10271042  RH  090%=      5-min Rain = 0
KDMS 101215Z 27009KT M03/M04 A3032 RMK A01 T10271041  RH  091%=      5-min Rain = 0
KDMS 101220Z 27009KT M02/M04 A3032 RMK A01 T10241038  RH  091%=      5-min Rain = 0
KDMS 101225Z 27009KT M02/M04 A3032 RMK A01 T10241038  RH  091%=      5-min Rain = 0
KDMS 101230Z 27010KT M02/M04 A3032 RMK A01 T10221035  RH  091%=      5-min Rain = 0
KDMS 101235Z 28010KT M02/M03 A3032 RMK A01 T10201033  RH  091%=      5-min Rain = 0
KDMS 101240Z 28009KT M02/M03 A3032 RMK A01 T10201034  RH  091%=      5-min Rain = 0
KDMS 101245Z 29008KT M02/M03 A3032 RMK A01 T10201034  RH  091%=      5-min Rain = 0
KDMS 101250Z 29007KT M02/M04 A3032 RMK A01 T10221036  RH  091%=      5-min Rain = 0
KDMS 101255Z 29008KT M03/M04 A3032 RMK A01 T10291042  RH  091%=      5-min Rain = 0
KDMS 101300Z 28006KT M03/M04 A3032 RMK A01 T10311043  RH  092%=      5-min Rain = 0
KDMS 101305Z 28006KT M04/M05 A3032 RMK A01 T10361047  RH  092%=      5-min Rain = 0
KDMS 101310Z 27007KT M04/M05 A3032 RMK A01 T10381048  RH  093%=      5-min Rain = 0
KDMS 101315Z 27007KT M04/M04 A3032 RMK A01 T10351044  RH  094%=      5-min Rain = 0
KDMS 101320Z 27007KT M03/M04 A3032 RMK A01 T10341043  RH  094%=      5-min Rain = 0
KDMS 101325Z 27008KT M03/M04 A3032 RMK A01 T10301039  RH  094%=      5-min Rain = 0
KDMS 101330Z 27008KT M03/M04 A3032 RMK A01 T10291040  RH  092%=      5-min Rain = 0
KDMS 101335Z 27009KT M03/M04 A3032 RMK A01 T10281040  RH  092%=      5-min Rain = 0
KDMS 101340Z 27008KT M03/M04 A3032 RMK A01 T10251039  RH  091%=      5-min Rain = 0
KDMS 101345Z 27006KT M03/M04 A3032 RMK A01 T10271041  RH  090%=      5-min Rain = 0
KDMS 101350Z 27007KT M03/M05 A3033 RMK A01 T10311045  RH  090%=      5-min Rain = 0
KDMS 101355Z 28007KT M03/M04 A3033 RMK A01 T10301044  RH  090%=      5-min Rain = 0
KDMS 101400Z 28006KT M03/M05 A3033 RMK A01 T10301045  RH  089%=      5-min Rain = 0
KDMS 101405Z 30006KT M03/M05 A3033 RMK A01 T10321048  RH  089%=      5-min Rain = 0
KDMS 101410Z 30008KT M04/M05 A3033 RMK A01 T10351050  RH  090%=      5-min Rain = 0
KDMS 101415Z 29008KT M04/M05 A3033 RMK A01 T10361050  RH  091%=      5-min Rain = 0
KDMS 101420Z 30006KT M04/M05 A3034 RMK A01 T10351049  RH  091%=      5-min Rain = 0
KDMS 101425Z 30005KT M04/M05 A3034 RMK A01 T10351049  RH  091%=      5-min Rain = 0
KDMS 101430Z 31005KT M04/M05 A3034 RMK A01 T10351048  RH  091%=      5-min Rain = 0
KDMS 101435Z 31003KT M03/M05 A3034 RMK A01 T10341047  RH  091%=      5-min Rain = 0
KDMS 101440Z 30003KT M03/M05 A3034 RMK A01 T10311045  RH  090%=      5-min Rain = 0
KDMS 101445Z 28003KT M03/M04 A3034 RMK A01 T10281044  RH  089%=      5-min Rain = 0
KDMS 101450Z 29004KT M02/M04 A3034 RMK A01 T10231040  RH  089%=      5-min Rain = 0
KDMS 101455Z 29005KT M02/M04 A3034 RMK A01 T10191038  RH  088%=      5-min Rain = 0
KDMS 101500Z 29006KT M02/M04 A3034 RMK A01 T10171036  RH  087%=      5-min Rain = 0
KDMS 101505Z 29006KT M01/M03 A3035 RMK A01 T10131033  RH  087%=      5-min Rain = 0
KDMS 101510Z 30006KT M01/M03 A3035 RMK A01 T10091030  RH  086%=      5-min Rain = 0
KDMS 101515Z 29007KT M00/M03 A3034 RMK A01 T10031027  RH  085%=      5-min Rain = 0
KDMS 101520Z 29007KT 00/M02 A3034 RMK A01 T00021022  RH  084%=      5-min Rain = 0
KDMS 101525Z 29008KT 01/M02 A3035 RMK A01 T00081019  RH  082%=      5-min Rain = 0
KDMS 101530Z 29007KT 01/M02 A3035 RMK A01 T00141017  RH  081%=      5-min Rain = 0
KDMS 101535Z 29008KT 02/M01 A3035 RMK A01 T00191013  RH  080%=      5-min Rain = 0
KDMS 101540Z 29008KT 02/M01 A3035 RMK A01 T00231012  RH  078%=      5-min Rain = 0
KDMS 101545Z 29007KT 03/M01 A3035 RMK A01 T00271009  RH  078%=      5-min Rain = 0
KDMS 101550Z 29007KT 03/M01 A3035 RMK A01 T00311006  RH  077%=      5-min Rain = 0
KDMS 101555Z 29006KT 04/M01 A3035 RMK A01 T00361005  RH  075%=      5-min Rain = 0
KDMS 101600Z 29006KT 04/M00 A3035 RMK A01 T00391004  RH  074%=      5-min Rain = 0
KDMS 101605Z 29005KT 04/M01 A3035 RMK A01 T00411005  RH  073%=      5-min Rain = 0
KDMS 101610Z 28006KT 05/M00 A3035 RMK A01 T00461004  RH  071%=      5-min Rain = 0
KDMS 101615Z 29006KT 05/M01 A3035 RMK A01 T00501005  RH  068%=      5-min Rain = 0
KDMS 101620Z 29005KT 05/M01 A3035 RMK A01 T00541005  RH  067%=      5-min Rain = 0
KDMS 101625Z 28005KT 06/M00 A3035 RMK A01 T00581004  RH  065%=      5-min Rain = 0
KDMS 101630Z 28006KT 06/M00 A3035 RMK A01 T00611003  RH  064%=      5-min Rain = 0
KDMS 101635Z 27006KT 06/M00 A3035 RMK A01 T00631003  RH  063%=      5-min Rain = 0
KDMS 101640Z 26007KT 07/M00 A3035 RMK A01 T00671001  RH  062%=      5-min Rain = 0
KDMS 101645Z 27006KT 07/00 A3035 RMK A01 T00700000  RH  062%=      5-min Rain = 0
KDMS 101650Z 27006KT 08/00 A3035 RMK A01 T00770003  RH  060%=      5-min Rain = 0
KDMS 101655Z 26006KT 08/00 A3034 RMK A01 T00800003  RH  059%=      5-min Rain = 0
KDMS 101700Z 25007KT 09/00 A3034 RMK A01 T00850004  RH  058%=      5-min Rain = 0
KDMS 101705Z 27007KT 09/00 A3034 RMK A01 T008500-0  RH  056%=      5-min Rain = 0
KDMS 101710Z 26007KT 09/M00 A3034 RMK A01 T00901001  RH  054%=      5-min Rain = 0
KDMS 101715Z 26007KT 09/M00 A3034 RMK A01 T00911002  RH  053%=      5-min Rain = 0
KDMS 101720Z 25008KT 10/M00 A3033 RMK A01 T00961003  RH  051%=      5-min Rain = 0
KDMS 101725Z 27008KT 10/M01 A3033 RMK A01 T00961009  RH  048%=      5-min Rain = 0
KDMS 101730Z 26009KT 10/M01 A3033 RMK A01 T00991010  RH  047%=      5-min Rain = 0
KDMS 101735Z 26008KT 10/M01 A3033 RMK A01 T01001011  RH  046%=      5-min Rain = 0
KDMS 101740Z 26009KT 10/M01 A3032 RMK A01 T01011012  RH  046%=      5-min Rain = 0
KDMS 101745Z 26009KT 10/M01 A3032 RMK A01 T01011014  RH  045%=      5-min Rain = 0
KDMS 101750Z 25008KT 10/M02 A3032 RMK A01 T01031017  RH  044%=      5-min Rain = 0
KDMS 101755Z 26008KT 10/M02 A3032 RMK A01 T01041017  RH  043%=      5-min Rain = 0
KDMS 101800Z 27008KT 11/M02 A3032 RMK A01 T01051018  RH  042%=      5-min Rain = 0
KDMS 101805Z 26006KT 11/M02 A3031 RMK A01 T01061020  RH  042%=      5-min Rain = 0
KDMS 101810Z 26006KT 11/M02 A3031 RMK A01 T01081019  RH  041%=      5-min Rain = 0
KDMS 101815Z 26007KT 11/M02 A3031 RMK A01 T01081021  RH  041%=      5-min Rain = 0
KDMS 101820Z 27006KT 11/M02 A3031 RMK A01 T01081023  RH  040%=      5-min Rain = 0
KDMS 101825Z 26006KT 11/M02 A303 RMK A01 T01101021  RH  040%=      5-min Rain = 0
KDMS 101830Z 26005KT 11/M02 A303 RMK A01 T01131018  RH  040%=      5-min Rain = 0
KDMS 101835Z 26005KT 11/M02 A303 RMK A01 T01121024  RH  039%=      5-min Rain = 0
KDMS 101840Z 27005KT 11/M03 A3029 RMK A01 T01121030  RH  037%=      5-min Rain = 0
KDMS 101845Z 27007KT 11/M03 A3029 RMK A01 T01141026  RH  038%=      5-min Rain = 0
KDMS 101850Z 27006KT 11/M03 A3029 RMK A01 T01141025  RH  038%=      5-min Rain = 0
KDMS 101855Z 26004KT 12/M03 A3029 RMK A01 T01161027  RH  037%=      5-min Rain = 0
KDMS 101900Z 24005KT 12/M02 A3028 RMK A01 T01181023  RH  038%=      5-min Rain = 0
KDMS 101905Z 25004KT 12/M03 A3028 RMK A01 T01191026  RH  037%=      5-min Rain = 0
KDMS 101910Z 24006KT 12/M02 A3028 RMK A01 T01181023  RH  038%=      5-min Rain = 0
KDMS 101915Z 22006KT 12/M02 A3028 RMK A01 T01191020  RH  038%=      5-min Rain = 0
KDMS 101920Z 25005KT 12/M02 A3027 RMK A01 T01221021  RH  037%=      5-min Rain = 0
KDMS 101925Z 23006G11KT 12/M03 A3027 RMK A01 T01211027  RH  036%=      5-min Rain = 0
KDMS 101930Z 23006G11KT 12/M03 A3027 RMK A01 T01231025  RH  036%=      5-min Rain = 0
KDMS 101935Z 22006KT 12/M03 A3027 RMK A01 T01231025  RH  036%=      5-min Rain = 0
KDMS 101940Z 22006G14KT 12/M02 A3027 RMK A01 T01241023  RH  036%=      5-min Rain = 0
KDMS 101945Z 24007G14KT 12/M03 A3026 RMK A01 T01241028  RH  035%=      5-min Rain = 0
KDMS 101950Z 22010G19KT 12/M03 A3026 RMK A01 T01241030  RH  034%=      5-min Rain = 0
KDMS 101955Z 22008G13KT 13/M03 A3026 RMK A01 T01251030  RH  034%=      5-min Rain = 0
KDMS 102000Z 22007KT 12/M02 A3026 RMK A01 T01241023  RH  036%=      5-min Rain = 0
KDMS 102005Z 22007KT 13/M02 A3025 RMK A01 T01281021  RH  036%=      5-min Rain = 0
KDMS 102010Z 23007KT 13/M03 A3025 RMK A01 T01291026  RH  034%=      5-min Rain = 0
KDMS 102015Z 22007G12KT 13/M03 A3025 RMK A01 T01261026  RH  035%=      5-min Rain = 0
KDMS 102020Z 22009KT 13/M03 A3025 RMK A01 T01271026  RH  035%=      5-min Rain = 0
KDMS 102025Z 23007KT 13/M03 A3025 RMK A01 T01281029  RH  034%=      5-min Rain = 0
KDMS 102030Z 22009G14KT 13/M02 A3025 RMK A01 T01291021  RH  035%=      5-min Rain = 0
KDMS 102035Z 23008KT 13/M03 A3025 RMK A01 T01281027  RH  034%=      5-min Rain = 0
KDMS 102040Z 23008KT 13/M03 A3025 RMK A01 T01291030  RH  033%=      5-min Rain = 0
KDMS 102045Z 21009KT 13/M04 A3025 RMK A01 T01271035  RH  032%=      5-min Rain = 0
KDMS 102050Z 22009KT 13/M05 A3025 RMK A01 T01281046  RH  030%=      5-min Rain = 0
KDMS 102055Z 22008KT 13/M05 A3024 RMK A01 T01281046  RH  030%=      5-min Rain = 0
KDMS 102100Z 24008G13KT 13/M05 A3024 RMK A01 T01301045  RH  029%=      5-min Rain = 0
KDMS 102105Z 23005G11KT 13/M05 A3024 RMK A01 T01291048  RH  029%=      5-min Rain = 0
KDMS 102110Z 24008KT 13/M04 A3024 RMK A01 T01301044  RH  030%=      5-min Rain = 0
KDMS 102115Z 22008KT 13/M04 A3024 RMK A01 T01301043  RH  030%=      5-min Rain = 0
KDMS 102120Z 22008KT 13/M04 A3024 RMK A01 T01281042  RH  030%=      5-min Rain = 0
KDMS 102125Z 22009KT 13/M04 A3024 RMK A01 T01281042  RH  030%=      5-min Rain = 0
KDMS 102130Z 24008KT 13/M04 A3024 RMK A01 T01291043  RH  030%=      5-min Rain = 0
KDMS 102135Z 23008KT 13/M05 A3024 RMK A01 T01291045  RH  030%=      5-min Rain = 0
KDMS 102140Z 23008KT 13/M04 A3024 RMK A01 T01281044  RH  030%=      5-min Rain = 0
KDMS 102145Z 23008KT 13/M05 A3024 RMK A01 T01291046  RH  029%=      5-min Rain = 0
KDMS 102150Z 22007KT 13/M05 A3023 RMK A01 T01291047  RH  029%=      5-min Rain = 0
KDMS 102155Z 21008KT 13/M05 A3023 RMK A01 T01281046  RH  030%=      5-min Rain = 0
KDMS 102200Z 24009KT 13/M05 A3023 RMK A01 T01281054  RH  028%=      5-min Rain = 0
KDMS 102205Z 23008KT 13/M06 A3023 RMK A01 T01271056  RH  027%=      5-min Rain = 0
KDMS 102210Z 22005G10KT 13/M05 A3023 RMK A01 T01281054  RH  028%=      5-min Rain = 0
KDMS 102215Z 22008KT 13/M06 A3023 RMK A01 T01261056  RH  028%=      5-min Rain = 0
KDMS 102220Z 23007KT 12/M05 A3023 RMK A01 T01241052  RH  029%=      5-min Rain = 0
KDMS 102225Z 23008KT 12/M05 A3024 RMK A01 T01211054  RH  029%=      5-min Rain = 0
KDMS 102230Z 23007KT 12/M06 A3024 RMK A01 T01211055  RH  029%=      5-min Rain = 0
KDMS 102235Z 23007KT 12/M06 A3024 RMK A01 T01161055  RH  030%=      5-min Rain = 0
KDMS 102240Z 23006KT 11/M05 A3024 RMK A01 T01111049  RH  032%=      5-min Rain = 0
KDMS 102245Z 23007KT 10/M05 A3024 RMK A01 T01041049  RH  034%=      5-min Rain = 0
KDMS 102250Z 22007KT 10/M05 A3024 RMK A01 T00971045  RH  037%=      5-min Rain = 0
KDMS 102255Z 21006KT 09/M05 A3024 RMK A01 T00931048  RH  037%=      5-min Rain = 0
KDMS 102300Z 21006KT 09/M05 A3024 RMK A01 T00881045  RH  039%=      5-min Rain = 0
KDMS 102305Z 20006KT 09/M05 A3024 RMK A01 T00871047  RH  038%=      5-min Rain = 0
KDMS 102310Z 21006KT 08/M05 A3024 RMK A01 T00831047  RH  039%=      5-min Rain = 0
KDMS 102315Z 21005KT 08/M05 A3024 RMK A01 T00791050  RH  040%=      5-min Rain = 0
KDMS 102320Z 20006KT 07/M05 A3024 RMK A01 T00741050  RH  041%=      5-min Rain = 0
KDMS 102325Z 20007KT 07/M05 A3024 RMK A01 T00661052  RH  043%=      5-min Rain = 0
KDMS 102330Z 20006KT 06/M06 A3024 RMK A01 T00641055  RH  042%=      5-min Rain = 0
KDMS 102335Z 20006KT 06/M06 A3024 RMK A01 T00621056  RH  043%=      5-min Rain = 0
KDMS 102340Z 20006KT 06/M06 A3024 RMK A01 T00591057  RH  043%=      5-min Rain = 0
KDMS 102345Z 20006KT 05/M06 A3024 RMK A01 T00511057  RH  046%=      5-min Rain = 0
KDMS 102350Z 20006KT 05/M06 A3024 RMK A01 T00461059  RH  047%=      5-min Rain = 0
KDMS 102355Z 20006KT 05/M06 A3024 RMK A01 T00471060  RH  046%=      5-min Rain = 0
KDMS 110000Z 20006KT 04/M06 A3024 RMK A01 T00441062  RH  046%=      5-min Rain = 0
KDMS 110005Z 20005KT 04/M06 A3024 RMK A01 T00411063  RH  047%=      5-min Rain = 0
KDMS 110010Z 20006KT 04/M06 A3024 RMK A01 T00391062  RH  048%=      5-min Rain = 0
KDMS 110015Z 19006KT 04/M06 A3024 RMK A01 T00361062  RH  049%=      5-min Rain = 0
KDMS 110020Z 17007KT 03/M06 A3024 RMK A01 T00271062  RH  052%=      5-min Rain = 0
KDMS 110025Z 16007KT 02/M06 A3024 RMK A01 T00221056  RH  056%=      5-min Rain = 0
KDMS 110030Z 16008KT 02/M05 A3024 RMK A01 T00201051  RH  059%=      5-min Rain = 0
KDMS 110035Z 16009KT 01/M04 A3024 RMK A01 T00141041  RH  067%=      5-min Rain = 0
KDMS 110040Z 15009KT 01/M03 A3024 RMK A01 T00091031  RH  075%=      5-min Rain = 0
KDMS 110045Z 16009KT 01/M02 A3024 RMK A01 T00111018  RH  082%=      5-min Rain = 0
KDMS 110050Z 16009KT 01/M01 A3024 RMK A01 T00111014  RH  084%=      5-min Rain = 0
KDMS 110055Z 16009KT 01/M01 A3024 RMK A01 T00101012  RH  086%=      5-min Rain = 0
KDMS 110100Z 16008KT 01/M01 A3024 RMK A01 T00111009  RH  087%=      5-min Rain = 0
KDMS 110105Z 16009KT 01/M01 A3024 RMK A01 T00121008  RH  088%=      5-min Rain = 0
KDMS 110110Z 17009KT 01/M01 A3024 RMK A01 T00121006  RH  088%=      5-min Rain = 0
KDMS 110115Z 17009KT 01/M01 A3024 RMK A01 T00141005  RH  088%=      5-min Rain = 0
KDMS 110120Z 18009KT 02/M00 A3025 RMK A01 T00161002  RH  088%=      5-min Rain = 0
KDMS 110125Z 18009KT 01/M01 A3025 RMK A01 T00141005  RH  088%=      5-min Rain = 0
KDMS 110130Z 18009KT 01/M01 A3025 RMK A01 T00091008  RH  089%=      5-min Rain = 0
KDMS 110135Z 18009KT 01/M01 A3025 RMK A01 T00071009  RH  090%=      5-min Rain = 0
KDMS 110140Z 18009KT 01/M01 A3025 RMK A01 T00061009  RH  090%=      5-min Rain = 0
KDMS 110145Z 18008KT 00/M01 A3025 RMK A01 T00031012  RH  090%=      5-min Rain = 0
KDMS 110150Z 18009KT 00/M01 A3025 RMK A01 T00011013  RH  091%=      5-min Rain = 0
KDMS 110155Z 18009KT M00/M01 A3025 RMK A01 T10011014  RH  092%=      5-min Rain = 0
KDMS 110200Z 18009KT M00/M01 A3025 RMK A01 T10011013  RH  092%=      5-min Rain = 0
KDMS 110205Z 18009KT M00/M01 A3025 RMK A01 T10011014  RH  092%=      5-min Rain = 0
KDMS 110210Z 18009KT M00/M01 A3025 RMK A01 T10011014  RH  091%=      5-min Rain = 0
KDMS 110215Z 19008KT M00/M02 A3025 RMK A01 T10011015  RH  091%=      5-min Rain = 0
KDMS 110220Z 19010KT 00/M01 A3025 RMK A01 T00031010  RH  091%=      5-min Rain = 0
KDMS 110225Z 19009KT 01/M01 A3025 RMK A01 T00081008  RH  090%=      5-min Rain = 0
KDMS 110230Z 19008KT 01/M01 A3025 RMK A01 T00071011  RH  089%=      5-min Rain = 0
KDMS 110235Z 20007KT 00/M01 A3025 RMK A01 T00031013  RH  090%=      5-min Rain = 0
KDMS 110240Z 20006KT 00/M02 A3025 RMK A01 T00011015  RH  090%=      5-min Rain = 0
KDMS 110245Z 21008KT 00/M01 A3025 RMK A01 T00021013  RH  090%=      5-min Rain = 0
KDMS 110250Z 21010KT 01/M01 A3025 RMK A01 T00101007  RH  089%=      5-min Rain = 0
KDMS 110255Z 21011KT 02/M01 A3025 RMK A01 T00171007  RH  085%=      5-min Rain = 0
KDMS 110300Z 21012KT 02/M01 A3025 RMK A01 T00201006  RH  084%=      5-min Rain = 0
KDMS 110305Z 21010KT 02/M01 A3025 RMK A01 T00181008  RH  083%=      5-min Rain = 0
KDMS 110310Z 21011KT 02/M01 A3025 RMK A01 T00201008  RH  083%=      5-min Rain = 0
KDMS 110315Z 21011KT 02/M01 A3025 RMK A01 T00211008  RH  082%=      5-min Rain = 0
KDMS 110320Z 21010KT 02/M01 A3025 RMK A01 T00191010  RH  082%=      5-min Rain = 0
KDMS 110325Z 21010KT 02/M01 A3025 RMK A01 T00171011  RH  082%=      5-min Rain = 0
KDMS 110330Z 22010KT 01/M01 A3025 RMK A01 T00141012  RH  084%=      5-min Rain = 0
KDMS 110335Z 22010KT 01/M01 A3025 RMK A01 T00131012  RH  084%=      5-min Rain = 0
KDMS 110340Z 21010KT 02/M01 A3025 RMK A01 T00151011  RH  084%=      5-min Rain = 0
KDMS 110345Z 22010KT 02/M01 A3025 RMK A01 T00151011  RH  083%=      5-min Rain = 0
KDMS 110350Z 22010KT 01/M01 A3025 RMK A01 T00141012  RH  083%=      5-min Rain = 0
KDMS 110355Z 22009KT 01/M01 A3025 RMK A01 T00121014  RH  084%=      5-min Rain = 0
KDMS 110400Z 22009KT 01/M01 A3026 RMK A01 T00111014  RH  084%=      5-min Rain = 0
KDMS 110405Z 22009KT 01/M01 A3025 RMK A01 T00141013  RH  083%=      5-min Rain = 0
KDMS 110410Z 22010KT 02/M01 A3025 RMK A01 T00151012  RH  083%=      5-min Rain = 0
KDMS 110415Z 22010KT 02/M01 A3025 RMK A01 T00161013  RH  082%=      5-min Rain = 0
KDMS 110420Z 22010KT 01/M01 A3025 RMK A01 T00131014  RH  083%=      5-min Rain = 0
KDMS 110425Z 22009KT 01/M01 A3025 RMK A01 T00131014  RH  083%=      5-min Rain = 0
KDMS 110430Z 22009KT 01/M02 A3025 RMK A01 T00101016  RH  084%=      5-min Rain = 0
KDMS 110435Z 22009KT 01/M02 A3025 RMK A01 T00091016  RH  084%=      5-min Rain = 0
KDMS 110440Z 22008KT 01/M02 A3025 RMK A01 T00081016  RH  084%=      5-min Rain = 0
KDMS 110445Z 23009KT 01/M02 A3025 RMK A01 T00101015  RH  084%=      5-min Rain = 0
KDMS 110450Z 23008KT 01/M02 A3025 RMK A01 T00081016  RH  085%=      5-min Rain = 0
KDMS 110455Z 22008KT 01/M02 A3024 RMK A01 T00071016  RH  085%=      5-min Rain = 0
KDMS 110500Z 23008KT 01/M02 A3024 RMK A01 T00051019  RH  084%=      5-min Rain = 0
KDMS 110505Z 23008KT 00/M02 A3024 RMK A01 T00031021  RH  085%=      5-min Rain = 0
KDMS 110510Z 22008KT 01/M02 A3025 RMK A01 T00051020  RH  084%=      5-min Rain = 0
KDMS 110515Z 21010KT 01/M02 A3025 RMK A01 T00081021  RH  081%=      5-min Rain = 0
KDMS 110520Z 21010KT 01/M02 A3025 RMK A01 T00081022  RH  081%=      5-min Rain = 0
KDMS 110525Z 21010KT 00/M03 A3025 RMK A01 T00031025  RH  082%=      5-min Rain = 0
KDMS 110530Z 22010KT M00/M03 A3024 RMK A01 T10021028  RH  083%=      5-min Rain = 0
KDMS 110535Z 23009KT M01/M03 A3024 RMK A01 T10051030  RH  084%=      5-min Rain = 0
KDMS 110540Z 22009KT M01/M03 A3024 RMK A01 T10071031  RH  084%=      5-min Rain = 0
KDMS 110545Z 23008KT M01/M03 A3024 RMK A01 T10061034  RH  082%=      5-min Rain = 0
KDMS 110550Z 23008KT M01/M04 A3024 RMK A01 T10061035  RH  081%=      5-min Rain = 0
KDMS 110555Z 22008KT M01/M04 A3024 RMK A01 T10051037  RH  079%=      5-min Rain = 0

Page generated in 0.0089 seconds.